createdAt,value
2018-07-24T00:00:08.635Z,68.7
2018-07-24T00:01:09.312Z,69.1
2018-07-24T00:02:09.986Z,69.2
2018-07-24T00:03:10.664Z,69.1
2018-07-24T00:04:11.340Z,69.5
2018-07-24T00:05:12.018Z,69.6
2018-07-24T00:06:12.693Z,69.8
2018-07-24T00:07:13.368Z,70.0
2018-07-24T00:08:14.046Z,69.3
2018-07-24T00:09:14.721Z,69.4
2018-07-24T00:10:15.398Z,70.1
2018-07-24T00:11:16.074Z,69.9
2018-07-24T00:12:16.754Z,70.0
2018-07-24T00:13:17.427Z,70.2
2018-07-24T00:14:18.103Z,70.3
2018-07-24T00:15:18.780Z,70.5
2018-07-24T00:16:19.455Z,70.6
2018-07-24T00:17:20.132Z,70.3
2018-07-24T00:18:20.809Z,70.9
2018-07-24T00:19:21.483Z,71.1
2018-07-24T00:20:22.160Z,71.0
2018-07-24T00:21:22.836Z,70.9
2018-07-24T00:22:23.512Z,71.0
2018-07-24T00:23:24.189Z,71.2
2018-07-24T00:24:24.864Z,71.0
2018-07-24T00:25:25.541Z,70.9
2018-07-24T00:26:26.217Z,71.3
2018-07-24T00:27:26.891Z,71.5
2018-07-24T00:28:27.570Z,71.5
2018-07-24T00:29:28.245Z,71.6
2018-07-24T00:30:28.922Z,71.5
2018-07-24T00:31:29.598Z,71.4
2018-07-24T00:32:30.273Z,71.6
2018-07-24T00:33:30.995Z,71.6
2018-07-24T00:34:31.672Z,72.4
2018-07-24T00:35:32.347Z,72.2
2018-07-24T00:36:33.022Z,72.1
2018-07-24T00:37:33.697Z,71.9
2018-07-24T00:38:34.377Z,71.9
2018-07-24T00:39:35.055Z,72.0
2018-07-24T00:40:35.727Z,71.8
2018-07-24T00:41:36.403Z,71.9
2018-07-24T00:42:37.121Z,71.9
2018-07-24T00:43:37.798Z,72.0
2018-07-24T00:44:38.473Z,71.9
2018-07-24T00:45:39.149Z,72.0
2018-07-24T00:46:39.825Z,72.0
2018-07-24T00:47:40.619Z,71.8
2018-07-24T00:48:41.260Z,72.2
2018-07-24T00:49:41.936Z,72.5
2018-07-24T00:50:42.617Z,72.5
2018-07-24T00:51:43.332Z,72.8
2018-07-24T00:52:44.007Z,72.5
2018-07-24T00:53:44.684Z,72.8
2018-07-24T00:54:45.360Z,73.0
2018-07-24T00:55:46.081Z,73.3
2018-07-24T00:56:46.756Z,73.4
2018-07-24T00:57:47.431Z,72.5
2018-07-24T00:58:48.113Z,73.0
2018-07-24T00:59:48.785Z,73.2
2018-07-24T01:00:49.465Z,73.5
2018-07-24T01:01:50.137Z,72.8
2018-07-24T01:02:50.812Z,72.7
2018-07-24T01:03:51.489Z,73.7
2018-07-24T01:04:52.165Z,73.3
2018-07-24T01:05:52.841Z,73.4
2018-07-24T01:06:53.517Z,73.2
2018-07-24T01:07:54.199Z,73.6
2018-07-24T01:08:54.914Z,73.3
2018-07-24T01:09:55.634Z,73.8
2018-07-24T01:10:56.309Z,73.7
2018-07-24T01:11:56.984Z,73.8
2018-07-24T01:12:57.661Z,73.7
2018-07-24T01:13:58.336Z,73.8
2018-07-24T01:14:59.012Z,73.9
2018-07-24T01:15:59.732Z,74.2
2018-07-24T01:17:00.452Z,74.0
2018-07-24T01:18:01.129Z,74.1
2018-07-24T01:19:01.803Z,73.8
2018-07-24T01:20:02.480Z,74.3
2018-07-24T01:21:03.156Z,74.1
2018-07-24T01:22:03.831Z,74.7
2018-07-24T01:23:04.511Z,74.5
2018-07-24T01:24:05.184Z,74.4
2018-07-24T01:25:05.859Z,74.5
2018-07-24T01:26:06.536Z,74.8
2018-07-24T01:27:07.252Z,74.7
2018-07-24T01:28:07.972Z,74.9
2018-07-24T01:29:08.693Z,75.1
2018-07-24T01:30:09.367Z,74.7
2018-07-24T01:31:10.044Z,75.2
2018-07-24T01:32:10.722Z,74.9
2018-07-24T01:33:11.395Z,75.0
2018-07-24T01:34:12.071Z,75.6
2018-07-24T01:35:12.753Z,75.5
2018-07-24T01:36:13.426Z,75.6
2018-07-24T01:37:14.098Z,75.5
2018-07-24T01:38:14.773Z,75.4
2018-07-24T01:39:15.449Z,75.5
2018-07-24T01:40:16.125Z,75.7
2018-07-24T01:41:16.800Z,75.4
2018-07-24T01:42:17.476Z,75.7
2018-07-24T01:43:18.151Z,76.0
2018-07-24T01:44:18.872Z,76.0
2018-07-24T01:45:19.546Z,75.9
2018-07-24T01:46:20.221Z,75.8
2018-07-24T01:47:20.899Z,75.9
2018-07-24T01:48:21.573Z,76.1
2018-07-24T01:49:22.249Z,76.0
2018-07-24T01:50:22.924Z,76.1
2018-07-24T01:51:23.599Z,76.0
2018-07-24T01:52:24.275Z,76.4
2018-07-24T01:53:24.950Z,76.3
2018-07-24T01:54:25.627Z,76.2
2018-07-24T01:55:26.301Z,76.8
2018-07-24T01:56:27.022Z,77.1
2018-07-24T01:57:27.699Z,76.7
2018-07-24T01:58:28.375Z,76.6
2018-07-24T01:59:29.051Z,76.6
2018-07-24T02:00:29.729Z,76.7
2018-07-24T02:01:30.448Z,77.1
2018-07-24T02:02:31.124Z,77.0
2018-07-24T02:03:31.799Z,76.9
2018-07-24T02:04:32.473Z,77.1
2018-07-24T02:05:33.147Z,77.3
2018-07-24T02:06:33.871Z,77.1
2018-07-24T02:07:34.588Z,76.8
2018-07-24T02:08:35.264Z,76.8
2018-07-24T02:09:35.943Z,76.8
2018-07-24T02:10:36.613Z,76.8
2018-07-24T02:11:37.291Z,77.0
2018-07-24T02:12:37.965Z,76.9
2018-07-24T02:13:38.643Z,76.8
2018-07-24T02:14:39.317Z,77.1
2018-07-24T02:15:39.994Z,77.1
2018-07-24T02:16:40.670Z,77.1
2018-07-24T02:17:41.345Z,77.3
2018-07-24T02:18:42.026Z,77.1
2018-07-24T02:19:42.696Z,77.0
2018-07-24T02:20:43.371Z,76.9
2018-07-24T02:21:44.048Z,76.9
2018-07-24T02:22:44.722Z,76.9
2018-07-24T02:23:45.398Z,77.2
2018-07-24T02:24:46.073Z,77.1
2018-07-24T02:25:46.793Z,77.0
2018-07-24T02:26:47.471Z,77.0
2018-07-24T02:27:48.189Z,77.1
2018-07-24T02:28:48.866Z,77.2
2018-07-24T02:29:49.542Z,77.1
2018-07-24T02:30:50.248Z,77.2
2018-07-24T02:31:50.947Z,77.1
2018-07-24T02:32:51.647Z,77.2
2018-07-24T02:33:52.322Z,77.1
2018-07-24T02:34:53.005Z,76.9
2018-07-24T02:35:53.716Z,77.1
2018-07-24T02:36:54.392Z,77.0
2018-07-24T02:37:55.067Z,77.0
2018-07-24T02:38:55.742Z,77.1
2018-07-24T02:39:56.418Z,77.0
2018-07-24T02:40:57.099Z,77.0
2018-07-24T02:41:57.815Z,76.8
2018-07-24T02:42:58.584Z,76.7
2018-07-24T02:43:59.265Z,77.1
2018-07-24T02:44:59.980Z,77.3
2018-07-24T02:46:00.655Z,77.6
2018-07-24T02:47:01.331Z,77.8
2018-07-24T02:48:02.055Z,77.8
2018-07-24T02:49:02.731Z,77.8
2018-07-24T02:50:03.401Z,77.5
2018-07-24T02:51:04.122Z,77.7
2018-07-24T02:52:04.803Z,77.6
2018-07-24T02:53:05.473Z,77.5
2018-07-24T02:54:06.149Z,77.7
2018-07-24T02:55:06.825Z,77.2
2018-07-24T02:56:07.502Z,77.7
2018-07-24T02:57:08.176Z,77.7
2018-07-24T02:58:08.945Z,77.5
2018-07-24T02:59:09.620Z,77.6
2018-07-24T03:00:10.297Z,77.6
2018-07-24T03:01:10.972Z,78.0
2018-07-24T03:02:11.645Z,78.0
2018-07-24T03:03:12.322Z,78.0
2018-07-24T03:04:12.997Z,78.0
2018-07-24T03:05:13.675Z,78.0
2018-07-24T03:06:14.350Z,78.0
2018-07-24T03:07:15.026Z,78.6
2018-07-24T03:08:15.703Z,78.6
2018-07-24T03:09:16.380Z,78.5
2018-07-24T03:10:17.056Z,78.3
2018-07-24T03:11:17.732Z,78.2
2018-07-24T03:12:18.409Z,78.4
2018-07-24T03:13:19.088Z,78.8
2018-07-24T03:14:19.762Z,78.6
2018-07-24T03:15:20.436Z,78.5
2018-07-24T03:16:21.189Z,78.7
2018-07-24T03:17:21.793Z,78.9
2018-07-24T03:18:22.512Z,78.8
2018-07-24T03:19:23.234Z,79.0
2018-07-24T03:20:23.913Z,79.2
2018-07-24T03:21:24.589Z,79.5
2018-07-24T03:22:25.265Z,79.3
2018-07-24T03:23:25.941Z,79.3
2018-07-24T03:24:26.617Z,79.9
2018-07-24T03:25:27.294Z,79.8
2018-07-24T03:26:27.969Z,79.8
2018-07-24T03:27:28.647Z,80.0
2018-07-24T03:28:29.324Z,80.5
2018-07-24T03:29:30.002Z,80.0
2018-07-24T03:30:30.680Z,80.4
2018-07-24T03:31:31.357Z,80.0
2018-07-24T03:32:32.034Z,80.6
2018-07-24T03:33:32.712Z,80.7
2018-07-24T03:34:33.390Z,80.7
2018-07-24T03:35:34.066Z,80.8
2018-07-24T03:36:34.788Z,80.9
2018-07-24T03:37:35.470Z,80.9
2018-07-24T03:38:36.188Z,81.2
2018-07-24T03:39:36.879Z,81.4
2018-07-24T03:40:37.583Z,81.3
2018-07-24T03:41:38.301Z,81.3
2018-07-24T03:42:38.979Z,81.2
2018-07-24T03:43:39.657Z,81.6
2018-07-24T03:44:40.337Z,81.6
2018-07-24T03:45:41.015Z,81.3
2018-07-24T03:46:41.695Z,81.6
2018-07-24T03:47:42.371Z,81.5
2018-07-24T03:48:43.051Z,81.3
2018-07-24T03:49:43.730Z,81.6
2018-07-24T03:50:44.409Z,81.5
2018-07-24T03:51:45.089Z,81.5
2018-07-24T03:52:45.766Z,81.5
2018-07-24T03:53:46.443Z,81.5
2018-07-24T03:54:47.122Z,81.6
2018-07-24T03:55:47.800Z,81.6
2018-07-24T03:56:48.482Z,81.5
2018-07-24T03:57:49.214Z,81.7
2018-07-24T03:58:49.924Z,81.6
2018-07-24T03:59:50.601Z,81.7
2018-07-24T04:00:51.325Z,81.5
2018-07-24T04:01:52.009Z,81.7
2018-07-24T04:02:52.685Z,81.5
2018-07-24T04:03:53.363Z,81.3
2018-07-24T04:04:54.041Z,81.3
2018-07-24T04:05:54.720Z,81.3
2018-07-24T04:06:55.398Z,81.3
2018-07-24T04:07:56.075Z,81.3
2018-07-24T04:08:56.753Z,81.5
2018-07-24T04:09:57.433Z,81.3
2018-07-24T04:10:58.113Z,81.6
2018-07-24T04:11:58.796Z,81.6
2018-07-24T04:12:59.517Z,81.6
2018-07-24T04:14:00.197Z,81.2
2018-07-24T04:16:22.440Z,80.9
2018-07-24T04:17:23.105Z,81.2
2018-07-24T04:18:23.773Z,81.5
2018-07-24T04:19:42.138Z,81.7
2018-07-24T04:20:42.807Z,81.2
2018-07-24T04:21:43.475Z,80.7
2018-07-24T04:22:44.144Z,80.8
2018-07-24T04:23:44.812Z,80.9
2018-07-24T04:24:45.524Z,80.6
2018-07-24T04:27:01.694Z,80.8
2018-07-24T04:28:02.365Z,80.6
2018-07-24T04:29:03.156Z,81.0
2018-07-24T04:30:03.782Z,80.8
2018-07-24T04:31:04.465Z,80.8
2018-07-24T04:32:05.117Z,80.8
2018-07-24T04:33:05.785Z,80.9
2018-07-24T04:34:06.468Z,80.3
2018-07-24T04:35:07.190Z,80.4
2018-07-24T04:36:07.916Z,80.3
2018-07-24T04:37:08.596Z,80.5
2018-07-24T04:38:09.279Z,79.8
2018-07-24T04:39:09.971Z,80.1
2018-07-24T04:40:10.676Z,79.8
2018-07-24T04:41:11.319Z,80.1
2018-07-24T04:42:12.042Z,79.8
2018-07-24T04:43:12.727Z,80.0
2018-07-24T04:44:13.402Z,80.1
2018-07-24T04:45:14.126Z,80.2
2018-07-24T04:46:14.809Z,80.1
2018-07-24T04:47:15.532Z,80.3
2018-07-24T04:48:16.257Z,79.6
2018-07-24T04:49:16.981Z,79.5
2018-07-24T04:50:17.706Z,79.8
2018-07-24T04:51:18.385Z,79.7
2018-07-24T04:52:19.066Z,79.2
2018-07-24T04:53:19.748Z,79.3
2018-07-24T04:54:20.426Z,79.7
2018-07-24T04:55:21.106Z,79.1
2018-07-24T04:56:21.787Z,79.1
2018-07-24T04:57:22.471Z,79.4
2018-07-24T04:58:23.144Z,79.3
2018-07-24T04:59:23.825Z,79.0
2018-07-24T05:00:24.552Z,78.7
2018-07-24T05:01:25.277Z,78.7
2018-07-24T05:02:25.999Z,78.5
2018-07-24T05:03:26.679Z,78.7
2018-07-24T05:04:27.359Z,78.8
2018-07-24T05:05:28.041Z,78.5
2018-07-24T05:06:28.725Z,78.3
2018-07-24T05:07:29.399Z,78.0
2018-07-24T05:08:30.080Z,78.1
2018-07-24T05:09:30.797Z,78.3
2018-07-24T05:10:31.476Z,78.2
2018-07-24T05:11:32.158Z,77.9
2018-07-24T05:12:32.840Z,77.7
2018-07-24T05:13:33.565Z,77.6
2018-07-24T05:14:34.289Z,77.6
2018-07-24T05:15:35.013Z,77.7
2018-07-24T05:16:35.725Z,77.7
2018-07-24T05:17:36.370Z,77.6
2018-07-24T05:18:37.052Z,77.7
2018-07-24T05:19:37.731Z,77.1
2018-07-24T05:20:38.411Z,76.8
2018-07-24T05:21:39.137Z,77.0
2018-07-24T05:22:39.863Z,76.8
2018-07-24T05:23:40.552Z,76.6
2018-07-24T05:24:41.234Z,76.8
2018-07-24T05:25:41.988Z,76.8
2018-07-24T05:26:42.662Z,76.7
2018-07-24T05:27:43.344Z,76.6
2018-07-24T05:28:44.024Z,77.0
2018-07-24T05:29:44.704Z,76.8
2018-07-24T05:30:45.384Z,76.3
2018-07-24T05:31:46.064Z,76.2
2018-07-24T05:32:46.745Z,76.5
2018-07-24T05:33:47.470Z,76.1
2018-07-24T05:34:48.150Z,75.9
2018-07-24T05:35:48.830Z,75.9
2018-07-24T05:36:49.513Z,76.0
2018-07-24T05:37:50.193Z,75.6
2018-07-24T05:38:50.919Z,75.5
2018-07-24T05:39:51.551Z,75.7
2018-07-24T05:40:52.233Z,75.2
2018-07-24T05:41:52.915Z,75.1
2018-07-24T05:42:53.640Z,75.2
2018-07-24T05:43:54.371Z,74.9
2018-07-24T05:44:55.049Z,74.9
2018-07-24T05:45:55.730Z,74.3
2018-07-24T05:46:56.414Z,74.8
2018-07-24T05:47:57.095Z,73.9
2018-07-24T05:48:57.781Z,73.9
2018-07-24T05:49:58.509Z,74.2
2018-07-24T05:50:59.143Z,74.3
2018-07-24T05:51:59.823Z,74.2
2018-07-24T05:53:00.506Z,73.9
2018-07-24T05:54:01.189Z,73.8
2018-07-24T05:55:01.918Z,73.6
2018-07-24T05:56:02.552Z,73.7
2018-07-24T05:57:03.234Z,73.3
2018-07-24T05:58:03.914Z,73.1
2018-07-24T05:59:04.597Z,73.4
2018-07-24T06:00:05.324Z,72.9
2018-07-24T06:01:06.004Z,73.4
2018-07-24T06:02:06.687Z,72.7
2018-07-24T06:03:07.369Z,72.8
2018-07-24T06:04:08.049Z,72.6
2018-07-24T06:05:08.732Z,72.3
2018-07-24T06:06:09.417Z,71.8
2018-07-24T06:07:10.102Z,71.9
2018-07-24T06:08:10.822Z,72.1
2018-07-24T06:09:11.549Z,72.0
2018-07-24T06:10:12.229Z,71.7
2018-07-24T06:11:12.911Z,72.3
2018-07-24T06:12:13.593Z,71.7
2018-07-24T06:13:14.343Z,71.6
2018-07-24T06:14:14.958Z,71.5
2018-07-24T06:15:15.639Z,71.2
2018-07-24T06:16:16.320Z,70.5
2018-07-24T06:17:17.025Z,70.6
2018-07-24T06:18:17.685Z,70.3
2018-07-24T06:19:18.367Z,70.3
2018-07-24T06:20:19.094Z,70.0
2018-07-24T06:21:19.820Z,69.7
2018-07-24T06:22:20.501Z,69.8
2018-07-24T06:23:21.184Z,69.5
2018-07-24T06:24:21.868Z,69.1
2018-07-24T06:25:22.549Z,69.1
2018-07-24T06:26:23.230Z,68.9
2018-07-24T06:27:23.915Z,68.5
2018-07-24T06:28:24.596Z,68.5
2018-07-24T06:29:25.325Z,68.2
2018-07-24T06:30:26.009Z,68.0
2018-07-24T06:31:26.691Z,66.6
2018-07-24T06:32:27.373Z,63.3
2018-07-24T06:33:28.107Z,60.6
2018-07-24T06:34:28.794Z,57.9
2018-07-24T06:35:29.478Z,54.8
2018-07-24T06:36:30.167Z,53.0
2018-07-24T06:37:30.891Z,50.3
2018-07-24T06:38:31.576Z,48.4
2018-07-24T06:39:32.327Z,45.9
2018-07-24T06:40:32.997Z,43.7
2018-07-24T06:41:33.684Z,41.6
2018-07-24T06:42:34.371Z,39.3
2018-07-24T06:43:35.058Z,38.6
2018-07-24T06:44:35.775Z,36.8
2018-07-24T06:45:36.434Z,35.5
2018-07-24T06:46:37.116Z,34.2
2018-07-24T06:47:37.828Z,33.8
2018-07-24T06:48:38.503Z,33.4
2018-07-24T06:49:39.178Z,32.3
2018-07-24T06:50:39.900Z,31.6
2018-07-24T06:51:40.752Z,31.1
2018-07-24T06:52:41.303Z,30.4
2018-07-24T06:53:42.182Z,29.5
2018-07-24T06:55:58.787Z,28.2
2018-07-24T06:56:59.503Z,27.3
2018-07-24T06:58:00.181Z,26.8
2018-07-24T06:59:00.861Z,26.9
2018-07-24T07:00:01.542Z,26.1
2018-07-24T07:02:17.857Z,25.4
2018-07-24T07:03:18.478Z,25.0
2018-07-24T07:04:19.417Z,25.4
2018-07-24T07:05:20.994Z,24.9
2018-07-24T07:07:37.853Z,23.5
2018-07-24T07:08:38.516Z,23.4
2018-07-24T07:09:39.196Z,22.3
2018-07-24T07:10:39.918Z,22.5
2018-07-24T07:11:40.597Z,22.4
2018-07-24T07:12:41.277Z,22.1
2018-07-24T07:13:41.959Z,22.1
2018-07-24T07:14:42.682Z,22.0
2018-07-24T07:15:43.361Z,21.9
2018-07-24T07:16:44.056Z,21.4
2018-07-24T07:17:44.721Z,21.5
2018-07-24T07:18:45.401Z,21.1
2018-07-24T07:19:46.127Z,21.1
2018-07-24T07:20:46.810Z,21.1
2018-07-24T07:21:47.491Z,20.4
2018-07-24T07:22:48.173Z,20.2
2018-07-24T07:23:48.854Z,20.2
2018-07-24T07:24:49.536Z,19.5
2018-07-24T07:25:50.216Z,19.6
2018-07-24T07:26:50.898Z,19.8
2018-07-24T07:27:51.579Z,19.5
2018-07-24T07:28:52.260Z,19.0
2018-07-24T07:29:52.940Z,18.5
2018-07-24T07:30:53.621Z,18.6
2018-07-24T07:31:54.303Z,18.9
2018-07-24T07:32:54.987Z,18.8
2018-07-24T07:33:55.712Z,18.8
2018-07-24T07:34:56.394Z,19.1
2018-07-24T07:35:57.075Z,18.9
2018-07-24T07:36:57.756Z,19.0
2018-07-24T07:37:58.480Z,19.0
2018-07-24T07:38:59.205Z,19.1
2018-07-24T07:39:59.890Z,18.5
2018-07-24T07:41:00.566Z,18.5
2018-07-24T07:42:01.248Z,18.5
2018-07-24T07:43:01.978Z,18.2
2018-07-24T07:44:02.762Z,18.1
2018-07-24T07:45:03.382Z,18.2
2018-07-24T07:46:04.061Z,18.0
2018-07-24T07:47:04.746Z,17.5
2018-07-24T07:48:05.469Z,17.6
2018-07-24T07:49:06.150Z,17.9
2018-07-24T07:50:06.831Z,17.3
2018-07-24T07:51:07.551Z,17.3
2018-07-24T07:52:08.239Z,17.2
2018-07-24T07:53:08.916Z,16.9
2018-07-24T07:54:09.643Z,16.7
2018-07-24T07:55:10.328Z,16.7
2018-07-24T07:56:11.052Z,16.6
2018-07-24T07:57:11.813Z,16.4
2018-07-24T07:58:12.498Z,16.0
2018-07-24T07:59:13.183Z,15.9
2018-07-24T08:00:13.861Z,15.9
2018-07-24T08:01:14.542Z,15.9
2018-07-24T08:02:15.223Z,16.2
2018-07-24T08:03:15.901Z,16.1
2018-07-24T08:04:16.596Z,16.0
2018-07-24T08:05:17.295Z,16.2
2018-07-24T08:06:17.974Z,16.1
2018-07-24T08:07:18.654Z,15.9
2018-07-24T08:08:19.340Z,16.6
2018-07-24T08:09:20.014Z,16.8
2018-07-24T08:10:20.694Z,17.2
2018-07-24T08:11:21.374Z,17.8
2018-07-24T08:12:22.101Z,17.9
2018-07-24T08:13:22.738Z,17.0
2018-07-24T08:14:23.463Z,16.9
2018-07-24T08:15:24.144Z,16.7
2018-07-24T08:16:24.877Z,16.2
2018-07-24T08:17:25.591Z,16.8
2018-07-24T08:18:26.269Z,16.1
2018-07-24T08:19:26.949Z,15.2
2018-07-24T08:20:27.630Z,15.2
2018-07-24T08:21:28.353Z,15.0
2018-07-24T08:22:29.037Z,15.8
2018-07-24T08:23:29.710Z,15.0
2018-07-24T08:24:30.388Z,15.0
2018-07-24T08:25:31.069Z,15.2
2018-07-24T08:26:31.745Z,15.2
2018-07-24T08:27:32.424Z,14.7
2018-07-24T08:28:33.103Z,14.9
2018-07-24T08:29:33.782Z,15.1
2018-07-24T08:30:34.464Z,15.0
2018-07-24T08:31:35.144Z,14.8
2018-07-24T08:32:35.864Z,14.9
2018-07-24T08:33:36.567Z,15.1
2018-07-24T08:34:37.226Z,15.2
2018-07-24T08:35:37.905Z,15.3
2018-07-24T08:36:38.638Z,15.0
2018-07-24T08:37:39.354Z,14.7
2018-07-24T08:38:40.038Z,14.7
2018-07-24T08:39:40.712Z,14.6
2018-07-24T08:40:41.436Z,14.8
2018-07-24T08:41:42.115Z,14.8
2018-07-24T08:42:42.792Z,14.7
2018-07-24T08:43:43.470Z,14.6
2018-07-24T08:44:44.164Z,15.3
2018-07-24T08:45:44.828Z,15.9
2018-07-24T08:46:45.505Z,15.9
2018-07-24T08:47:46.183Z,16.0
2018-07-24T08:48:46.892Z,15.8
2018-07-24T08:49:47.584Z,15.2
2018-07-24T08:50:48.292Z,15.5
2018-07-24T08:51:48.986Z,16.0
2018-07-24T08:52:49.745Z,15.9
2018-07-24T08:53:50.607Z,15.9
2018-07-24T08:54:51.186Z,16.3
2018-07-24T08:55:51.737Z,16.7
2018-07-24T08:56:52.415Z,16.6
2018-07-24T08:57:53.092Z,16.1
2018-07-24T08:58:53.772Z,15.8
2018-07-24T08:59:54.497Z,15.6
2018-07-24T09:00:55.217Z,15.8
2018-07-24T09:01:55.941Z,15.0
2018-07-24T09:02:56.700Z,15.1
2018-07-24T09:03:57.392Z,15.8
2018-07-24T09:04:58.070Z,15.2
2018-07-24T09:05:58.798Z,15.2
2018-07-24T09:06:59.516Z,15.2
2018-07-24T09:08:00.197Z,15.9
2018-07-24T09:09:00.880Z,15.8
2018-07-24T09:10:01.565Z,16.0
2018-07-24T09:11:02.284Z,16.5
2018-07-24T09:12:02.963Z,16.9
2018-07-24T09:13:03.644Z,16.6
2018-07-24T09:14:04.320Z,16.5
2018-07-24T09:15:04.998Z,16.2
2018-07-24T09:16:05.677Z,16.3
2018-07-24T09:17:06.354Z,15.5
2018-07-24T09:18:07.034Z,16.1
2018-07-24T09:19:07.711Z,15.7
2018-07-24T09:20:08.398Z,15.3
2018-07-24T09:21:09.068Z,14.7
2018-07-24T09:22:09.790Z,15.0
2018-07-24T09:23:10.514Z,14.8
2018-07-24T09:24:11.194Z,15.3
2018-07-24T09:25:11.875Z,15.7
2018-07-24T09:26:12.554Z,15.8
2018-07-24T09:27:13.236Z,16.0
2018-07-24T09:28:13.915Z,15.8
2018-07-24T09:29:14.595Z,16.5
2018-07-24T09:30:15.272Z,17.2
2018-07-24T09:31:15.999Z,16.7
2018-07-24T09:32:16.682Z,16.8
2018-07-24T09:33:17.385Z,16.5
2018-07-24T09:34:18.091Z,16.5
2018-07-24T09:35:18.801Z,16.4
2018-07-24T09:36:19.480Z,16.5
2018-07-24T09:37:20.203Z,16.1
2018-07-24T09:38:20.883Z,16.2
2018-07-24T09:39:21.558Z,16.5
2018-07-24T09:40:22.324Z,16.7
2018-07-24T09:41:22.960Z,16.4
2018-07-24T09:42:23.638Z,16.8
2018-07-24T09:43:24.412Z,16.9
2018-07-24T09:44:25.099Z,17.2
2018-07-24T09:45:25.814Z,17.2
2018-07-24T09:46:26.492Z,17.1
2018-07-24T09:47:27.171Z,17.8
2018-07-24T09:48:27.899Z,18.4
2018-07-24T09:49:28.621Z,18.8
2018-07-24T09:50:29.327Z,19.3
2018-07-24T09:51:30.023Z,19.2
2018-07-24T09:52:30.745Z,18.8
2018-07-24T09:53:31.473Z,18.7
2018-07-24T09:54:32.151Z,19.2
2018-07-24T09:55:32.830Z,20.0
2018-07-24T09:56:33.510Z,20.5
2018-07-24T09:57:34.190Z,20.2
2018-07-24T09:58:34.870Z,20.8
2018-07-24T09:59:35.550Z,21.1
2018-07-24T10:00:36.227Z,20.8
2018-07-24T10:01:36.950Z,21.0
2018-07-24T10:02:37.658Z,20.1
2018-07-24T10:03:38.348Z,20.1
2018-07-24T10:04:39.026Z,20.0
2018-07-24T10:05:39.704Z,19.9
2018-07-24T10:06:40.380Z,20.4
2018-07-24T10:07:41.106Z,20.8
2018-07-24T10:08:41.829Z,21.1
2018-07-24T10:09:42.508Z,21.1
2018-07-24T10:10:43.185Z,21.3
2018-07-24T10:11:43.867Z,21.4
2018-07-24T10:12:44.667Z,22.0
2018-07-24T10:13:45.265Z,22.0
2018-07-24T10:14:45.943Z,22.1
2018-07-24T10:15:46.622Z,21.9
2018-07-24T10:16:47.362Z,22.1
2018-07-24T10:17:47.978Z,21.4
2018-07-24T10:18:48.663Z,21.2
2018-07-24T10:19:49.379Z,21.2
2018-07-24T10:20:50.105Z,21.3
2018-07-24T10:21:50.829Z,21.6
2018-07-24T10:22:51.507Z,22.2
2018-07-24T10:23:52.185Z,22.5
2018-07-24T10:24:52.861Z,22.9
2018-07-24T10:25:53.539Z,23.3
2018-07-24T10:26:54.217Z,23.5
2018-07-24T10:27:54.940Z,24.1
2018-07-24T10:28:55.617Z,24.3
2018-07-24T10:29:56.340Z,24.2
2018-07-24T10:30:57.019Z,24.5
2018-07-24T10:31:57.697Z,24.6
2018-07-24T10:32:58.421Z,24.9
2018-07-24T10:33:59.100Z,25.2
2018-07-24T10:35:15.390Z,25.9
2018-07-24T10:36:16.082Z,25.9
2018-07-24T10:37:16.803Z,26.3
2018-07-24T10:38:17.509Z,26.8
2018-07-24T10:39:18.202Z,27.0
2018-07-24T10:40:18.936Z,26.5
2018-07-24T10:41:19.629Z,26.8
2018-07-24T10:42:20.318Z,26.9
2018-07-24T10:43:21.020Z,27.4
2018-07-24T10:44:21.748Z,28.1
2018-07-24T10:45:22.482Z,28.3
2018-07-24T10:46:23.172Z,28.4
2018-07-24T10:47:23.864Z,28.8
2018-07-24T10:48:24.553Z,28.2
2018-07-24T10:49:25.297Z,28.8
2018-07-24T10:50:25.936Z,29.1
2018-07-24T10:51:26.627Z,29.8
2018-07-24T10:52:27.361Z,30.1
2018-07-24T10:53:28.072Z,29.6
2018-07-24T10:54:28.742Z,30.0
2018-07-24T10:55:29.433Z,30.2
2018-07-24T10:56:30.122Z,30.7
2018-07-24T10:57:30.811Z,31.3
2018-07-24T10:58:31.501Z,31.4
2018-07-24T10:59:32.193Z,31.9
2018-07-24T11:00:32.930Z,32.2
2018-07-24T11:01:33.661Z,31.9
2018-07-24T11:02:34.350Z,31.9
2018-07-24T11:03:35.085Z,32.0
2018-07-24T11:04:35.774Z,32.3
2018-07-24T11:05:36.463Z,32.7
2018-07-24T11:06:37.155Z,33.3
2018-07-24T11:07:37.879Z,33.1
2018-07-24T11:08:38.613Z,33.2
2018-07-24T11:09:39.347Z,33.5
2018-07-24T11:10:40.078Z,33.3
2018-07-24T11:11:40.768Z,33.2
2018-07-24T11:12:41.456Z,33.6
2018-07-24T11:13:42.144Z,33.6
2018-07-24T11:14:42.833Z,34.0
2018-07-24T11:15:43.568Z,33.5
2018-07-24T11:16:44.302Z,33.7
2018-07-24T11:17:44.990Z,33.7
2018-07-24T11:18:45.698Z,34.1
2018-07-24T11:19:46.410Z,34.1
2018-07-24T11:20:47.100Z,34.0
2018-07-24T11:21:47.822Z,33.9
2018-07-24T11:22:48.762Z,34.0
2018-07-24T11:23:49.232Z,34.0
2018-07-24T11:24:49.907Z,33.8
2018-07-24T11:25:50.639Z,34.0
2018-07-24T11:26:51.363Z,34.2
2018-07-24T11:27:52.058Z,34.1
2018-07-24T11:28:52.746Z,33.5
2018-07-24T11:29:53.434Z,33.6
2018-07-24T11:30:54.124Z,33.4
2018-07-24T11:31:54.812Z,33.2
2018-07-24T11:32:55.506Z,33.4
2018-07-24T11:33:56.193Z,33.7
2018-07-24T11:34:56.878Z,33.3
2018-07-24T11:35:57.764Z,33.2
2018-07-24T11:36:58.257Z,33.2
2018-07-24T11:37:58.945Z,32.6
2018-07-24T11:38:59.633Z,31.9
2018-07-24T11:40:00.366Z,31.3
2018-07-24T11:41:01.088Z,31.4
2018-07-24T11:42:01.743Z,31.6
2018-07-24T11:43:02.448Z,32.0
2018-07-24T11:44:03.176Z,31.7
2018-07-24T11:45:03.855Z,32.1
2018-07-24T11:46:04.544Z,32.0
2018-07-24T11:47:05.278Z,32.2
2018-07-24T11:48:06.012Z,32.5
2018-07-24T11:49:06.746Z,32.4
2018-07-24T11:50:07.434Z,32.3
2018-07-24T11:51:08.123Z,32.6
2018-07-24T11:52:08.857Z,32.7
2018-07-24T11:53:09.544Z,33.2
2018-07-24T11:54:10.232Z,32.2
2018-07-24T11:55:10.922Z,32.7
2018-07-24T11:56:11.610Z,32.7
2018-07-24T11:57:12.299Z,32.1
2018-07-24T11:58:12.988Z,32.6
2018-07-24T11:59:13.675Z,32.6
2018-07-24T12:00:14.364Z,32.7
2018-07-24T12:01:15.053Z,32.8
2018-07-24T12:02:15.741Z,33.3
2018-07-24T12:03:16.454Z,32.9
2018-07-24T12:04:17.168Z,33.4
2018-07-24T12:05:17.852Z,32.5
2018-07-24T12:06:18.584Z,31.9
2018-07-24T12:07:19.277Z,32.1
2018-07-24T12:08:20.008Z,32.4
2018-07-24T12:09:20.695Z,32.3
2018-07-24T12:10:21.426Z,33.3
2018-07-24T12:11:22.116Z,33.5
2018-07-24T12:12:22.805Z,33.6
2018-07-24T12:13:23.493Z,33.5
2018-07-24T12:14:24.183Z,33.2
2018-07-24T12:15:24.870Z,33.2
2018-07-24T12:16:25.602Z,33.1
2018-07-24T12:17:26.291Z,33.1
2018-07-24T12:18:27.004Z,33.2
2018-07-24T12:19:27.758Z,33.2
2018-07-24T12:20:28.436Z,33.1
2018-07-24T12:21:29.124Z,33.1
2018-07-24T12:22:29.812Z,33.2
2018-07-24T12:23:30.500Z,33.1
2018-07-24T12:24:31.188Z,33.1
2018-07-24T12:25:31.922Z,33.1
2018-07-24T12:26:32.611Z,33.1
2018-07-24T12:27:33.300Z,33.5
2018-07-24T12:28:33.990Z,33.1
2018-07-24T12:29:34.678Z,33.2
2018-07-24T12:30:35.414Z,33.3
2018-07-24T12:31:36.114Z,33.1
2018-07-24T12:32:36.833Z,33.0
2018-07-24T12:33:37.522Z,33.1
2018-07-24T12:34:38.254Z,33.2
2018-07-24T12:35:38.943Z,33.1
2018-07-24T12:36:39.633Z,33.2
2018-07-24T12:37:40.320Z,33.1
2018-07-24T12:38:41.010Z,33.4
2018-07-24T12:39:41.698Z,34.0
2018-07-24T12:40:42.386Z,33.7
2018-07-24T12:41:43.075Z,33.8
2018-07-24T12:42:43.765Z,33.7
2018-07-24T12:43:44.579Z,33.1
2018-07-24T12:44:45.185Z,33.1
2018-07-24T12:45:45.918Z,32.7
2018-07-24T12:46:46.608Z,32.5
2018-07-24T12:47:47.301Z,32.5
2018-07-24T12:48:47.986Z,32.4
2018-07-24T12:49:48.679Z,32.5
2018-07-24T12:50:49.409Z,32.6
2018-07-24T12:51:50.142Z,32.4
2018-07-24T12:52:50.834Z,32.3
2018-07-24T12:53:51.521Z,32.1
2018-07-24T12:54:52.210Z,32.1
2018-07-24T12:55:52.898Z,32.3
2018-07-24T12:56:53.587Z,32.4
2018-07-24T12:57:54.341Z,32.2
2018-07-24T12:58:55.007Z,31.3
2018-07-24T12:59:55.696Z,31.9
2018-07-24T13:00:56.383Z,32.0
2018-07-24T13:01:57.072Z,32.1
2018-07-24T13:02:57.760Z,31.9
2018-07-24T13:03:58.476Z,31.7
2018-07-24T13:04:59.137Z,32.1
2018-07-24T13:05:59.825Z,32.2
2018-07-24T13:07:00.513Z,32.2
2018-07-24T13:08:01.203Z,32.0
2018-07-24T13:09:01.891Z,31.9
2018-07-24T13:10:02.599Z,31.9
2018-07-24T13:11:03.340Z,32.1
2018-07-24T13:12:04.000Z,32.2
2018-07-24T13:13:04.686Z,32.1
2018-07-24T13:14:05.375Z,32.0
2018-07-24T13:15:06.064Z,31.9
2018-07-24T13:16:06.751Z,31.9
2018-07-24T13:17:07.488Z,32.0
2018-07-24T13:18:08.172Z,32.0
2018-07-24T13:19:08.860Z,32.2
2018-07-24T13:20:09.549Z,32.0
2018-07-24T13:21:10.236Z,31.9
2018-07-24T13:22:10.924Z,31.8
2018-07-24T13:23:11.658Z,31.6
2018-07-24T13:24:12.346Z,31.6
2018-07-24T13:25:13.034Z,31.7
2018-07-24T13:26:13.723Z,31.8
2018-07-24T13:27:14.457Z,31.3
2018-07-24T13:28:15.145Z,31.0
2018-07-24T13:29:15.832Z,31.8
2018-07-24T13:30:16.520Z,30.7
2018-07-24T13:31:17.207Z,31.3
2018-07-24T13:32:17.895Z,31.0
2018-07-24T13:33:18.583Z,30.6
2018-07-24T13:34:19.272Z,30.5